createdAt,value
2017-08-01T00:01:00.071Z,83.89
2017-08-01T00:02:00.782Z,83.70
2017-08-01T00:03:01.494Z,84.09
2017-08-01T00:04:02.443Z,84.09
2017-08-01T00:05:03.143Z,84.37
2017-08-01T00:06:03.845Z,84.37
2017-08-01T00:07:04.548Z,84.37
2017-08-01T00:08:05.253Z,84.09
2017-08-01T00:09:06.006Z,83.99
2017-08-01T00:10:06.708Z,84.37
2017-08-01T00:11:07.418Z,84.37
2017-08-01T00:12:08.120Z,84.67
2017-08-01T00:13:08.830Z,84.67
2017-08-01T00:14:09.786Z,84.82
2017-08-01T00:15:10.492Z,84.47
2017-08-01T00:16:11.200Z,84.67
2017-08-01T00:17:11.908Z,84.47
2017-08-01T00:18:12.611Z,84.77
2017-08-01T00:19:13.569Z,84.86
2017-08-01T00:20:14.275Z,84.47
2017-08-01T00:21:14.979Z,84.82
2017-08-01T00:22:15.685Z,84.91
2017-08-01T00:23:16.388Z,85.49
2017-08-01T00:24:17.349Z,85.01
2017-08-01T00:25:18.051Z,85.25
2017-08-01T00:26:18.761Z,84.82
2017-08-01T00:27:19.466Z,84.86
2017-08-01T00:28:20.173Z,85.15
2017-08-01T00:29:21.132Z,84.91
2017-08-01T00:30:21.840Z,85.21
2017-08-01T00:31:22.543Z,85.21
2017-08-01T00:32:23.248Z,84.53
2017-08-01T00:33:23.949Z,84.91
2017-08-01T00:34:24.902Z,85.30
2017-08-01T00:35:25.603Z,85.40
2017-08-01T00:36:26.314Z,85.30
2017-08-01T00:37:27.019Z,85.59
2017-08-01T00:38:27.726Z,85.11
2017-08-01T00:39:28.678Z,85.40
2017-08-01T00:40:29.379Z,85.69
2017-08-01T00:41:30.084Z,85.30
2017-08-01T00:42:30.787Z,85.40
2017-08-01T00:43:31.489Z,85.88
2017-08-01T00:44:32.447Z,85.30
2017-08-01T00:45:33.159Z,85.59
2017-08-01T00:46:33.871Z,85.21
2017-08-01T00:47:34.577Z,85.49
2017-08-01T00:48:35.281Z,86.07
2017-08-01T00:49:36.236Z,85.98
2017-08-01T00:50:36.940Z,86.27
2017-08-01T00:51:37.642Z,85.98
2017-08-01T00:52:38.343Z,85.98
2017-08-01T00:53:39.045Z,86.94
2017-08-01T00:54:40.000Z,86.71
2017-08-01T00:55:40.712Z,86.90
2017-08-01T00:56:41.419Z,87.09
2017-08-01T00:57:42.124Z,87.48
2017-08-01T00:58:42.825Z,87.19
2017-08-01T00:59:43.784Z,87.43
2017-08-01T01:00:44.488Z,87.29
2017-08-01T01:01:45.190Z,87.19
2017-08-01T01:02:45.901Z,87.77
2017-08-01T01:03:46.606Z,88.25
2017-08-01T01:04:47.564Z,88.73
2017-08-01T01:05:48.266Z,88.79
2017-08-01T01:06:48.966Z,88.89
2017-08-01T01:07:49.677Z,88.45
2017-08-01T01:08:50.385Z,88.45
2017-08-01T01:09:51.357Z,89.27
2017-08-01T01:10:52.064Z,89.56
2017-08-01T01:11:52.771Z,89.47
2017-08-01T01:12:53.493Z,90.05
2017-08-01T01:13:54.194Z,90.53
2017-08-01T01:14:55.143Z,90.77
2017-08-01T01:15:55.844Z,91.01
2017-08-01T01:16:56.549Z,91.44
2017-08-01T01:17:57.253Z,91.64
2017-08-01T01:18:57.958Z,92.22
2017-08-01T01:19:58.912Z,91.83
2017-08-01T01:20:59.617Z,91.93
2017-08-01T01:22:00.325Z,92.36
2017-08-01T01:23:01.029Z,92.94
2017-08-01T01:24:01.731Z,92.75
2017-08-01T01:25:02.684Z,92.85
2017-08-01T01:26:03.386Z,92.85
2017-08-01T01:27:04.094Z,93.13
2017-08-01T01:28:04.801Z,93.33
2017-08-01T01:29:05.509Z,93.52
2017-08-01T01:30:06.461Z,93.33
2017-08-01T01:31:07.164Z,94.00
2017-08-01T01:32:07.864Z,94.20
2017-08-01T01:33:08.568Z,94.29
2017-08-01T01:34:09.270Z,94.39
2017-08-01T01:35:09.973Z,94.39
2017-08-01T01:36:10.673Z,94.20
2017-08-01T01:37:11.383Z,94.58
2017-08-01T01:38:12.086Z,95.26
2017-08-01T01:39:12.793Z,94.73
2017-08-01T01:40:13.754Z,94.68
2017-08-01T01:41:14.454Z,94.39
2017-08-01T01:42:15.156Z,94.39
2017-08-01T01:43:15.861Z,94.68
2017-08-01T01:44:16.562Z,95.26
2017-08-01T01:45:17.519Z,95.26
2017-08-01T01:46:18.222Z,95.64
2017-08-01T01:47:18.925Z,95.54
2017-08-01T01:48:19.625Z,95.54
2017-08-01T01:49:20.328Z,95.45
2017-08-01T01:50:21.280Z,95.45
2017-08-01T01:51:21.979Z,95.36
2017-08-01T01:52:22.685Z,95.16
2017-08-01T01:53:23.386Z,95.54
2017-08-01T01:54:24.087Z,96.03
2017-08-01T01:55:25.037Z,96.22
2017-08-01T01:56:25.739Z,96.12
2017-08-01T01:57:26.442Z,96.22
2017-08-01T01:58:27.152Z,95.36
2017-08-01T01:59:27.856Z,96.03
2017-08-01T02:00:28.809Z,95.74
2017-08-01T02:01:29.507Z,95.64
2017-08-01T02:02:30.210Z,96.03
2017-08-01T02:03:30.912Z,95.84
2017-08-01T02:04:31.613Z,95.36
2017-08-01T02:05:32.317Z,95.64
2017-08-01T02:06:33.022Z,95.16
2017-08-01T02:07:33.723Z,95.45
2017-08-01T02:08:34.431Z,95.16
2017-08-01T02:09:35.132Z,95.45
2017-08-01T02:10:36.085Z,95.26
2017-08-01T02:11:36.792Z,95.64
2017-08-01T02:12:37.495Z,95.54
2017-08-01T02:13:38.200Z,95.26
2017-08-01T02:14:38.902Z,94.96
2017-08-01T02:15:39.856Z,95.26
2017-08-01T02:16:40.559Z,94.96
2017-08-01T02:17:41.265Z,95.16
2017-08-01T02:18:41.968Z,95.06
2017-08-01T02:19:42.671Z,95.36
2017-08-01T02:20:43.623Z,95.26
2017-08-01T02:21:44.325Z,95.36
2017-08-01T02:22:45.029Z,95.16
2017-08-01T02:23:45.734Z,94.96
2017-08-01T02:24:46.440Z,94.96
2017-08-01T02:25:47.396Z,94.87
2017-08-01T02:26:48.096Z,94.78
2017-08-01T02:27:48.796Z,95.36
2017-08-01T02:28:49.502Z,94.78
2017-08-01T02:29:50.210Z,94.96
2017-08-01T02:30:51.164Z,95.36
2017-08-01T02:31:51.867Z,95.26
2017-08-01T02:32:52.573Z,95.21
2017-08-01T02:33:53.285Z,95.89
2017-08-01T02:34:53.989Z,96.17
2017-08-01T02:35:54.940Z,95.79
2017-08-01T02:36:55.650Z,95.74
2017-08-01T02:37:56.360Z,96.27
2017-08-01T02:38:57.063Z,95.79
2017-08-01T02:39:57.768Z,95.89
2017-08-01T02:40:58.720Z,96.66
2017-08-01T02:41:59.424Z,96.94
2017-08-01T02:43:00.133Z,96.94
2017-08-01T02:44:00.838Z,96.94
2017-08-01T02:45:01.541Z,97.04
2017-08-01T02:46:02.494Z,96.46
2017-08-01T02:47:03.198Z,96.75
2017-08-01T02:48:03.915Z,97.52
2017-08-01T02:49:04.616Z,98.00
2017-08-01T02:50:05.320Z,98.20
2017-08-01T02:51:06.275Z,97.96
2017-08-01T02:52:06.978Z,98.44
2017-08-01T02:53:07.684Z,98.54
2017-08-01T02:54:08.386Z,98.82
2017-08-01T02:55:09.087Z,98.54
2017-08-01T02:56:10.041Z,99.50
2017-08-01T02:57:10.746Z,99.11
2017-08-01T02:58:11.454Z,99.40
2017-08-01T02:59:12.156Z,99.69
2017-08-01T03:00:12.860Z,99.99
2017-08-01T03:01:13.813Z,99.44
2017-08-01T03:02:14.516Z,99.93
2017-08-01T03:03:15.217Z,99.99
2017-08-01T03:04:15.919Z,99.99
2017-08-01T03:05:16.619Z,99.88
2017-08-01T03:06:17.576Z,99.99
2017-08-01T03:07:18.280Z,99.99
2017-08-01T03:08:18.982Z,99.99
2017-08-01T03:09:19.685Z,99.99
2017-08-01T03:10:20.390Z,99.99
2017-08-01T03:11:21.092Z,99.99
2017-08-01T03:12:21.800Z,99.99
2017-08-01T03:13:22.502Z,99.99
2017-08-01T03:14:23.215Z,99.99
2017-08-01T03:15:23.916Z,99.99
2017-08-01T03:16:24.872Z,99.99
2017-08-01T03:17:25.574Z,99.99
2017-08-01T03:18:26.275Z,99.99
2017-08-01T03:19:26.980Z,99.99
2017-08-01T03:20:27.684Z,99.99
2017-08-01T03:21:28.636Z,99.99
2017-08-01T03:22:29.343Z,99.99
2017-08-01T03:23:30.044Z,99.99
2017-08-01T03:24:30.751Z,99.99
2017-08-01T03:25:31.454Z,99.99
2017-08-01T03:26:32.408Z,99.99
2017-08-01T03:27:33.110Z,99.99
2017-08-01T03:28:33.813Z,99.99
2017-08-01T03:29:34.521Z,99.99
2017-08-01T03:30:35.222Z,99.99
2017-08-01T03:31:36.176Z,99.99
2017-08-01T03:32:36.880Z,99.99
2017-08-01T03:33:37.585Z,99.99
2017-08-01T03:34:38.290Z,99.99
2017-08-01T03:35:38.996Z,99.99
2017-08-01T03:36:39.949Z,99.99
2017-08-01T03:37:40.653Z,99.99
2017-08-01T03:38:41.357Z,99.99
2017-08-01T03:39:42.059Z,99.99
2017-08-01T03:40:42.764Z,99.99
2017-08-01T03:41:43.723Z,99.99
2017-08-01T03:42:44.421Z,99.99
2017-08-01T03:43:45.116Z,99.99
2017-08-01T03:44:45.821Z,99.99
2017-08-01T03:45:46.524Z,99.99
2017-08-01T03:46:47.479Z,99.99
2017-08-01T03:47:48.179Z,99.99
2017-08-01T03:48:48.877Z,99.99
2017-08-01T03:49:49.585Z,99.99
2017-08-01T03:50:50.291Z,99.99
2017-08-01T03:51:51.247Z,99.99
2017-08-01T03:52:51.952Z,99.99
2017-08-01T03:53:52.655Z,99.99
2017-08-01T03:54:53.360Z,99.99
2017-08-01T03:55:54.063Z,99.99
2017-08-01T03:56:54.766Z,99.99
2017-08-01T03:57:55.471Z,99.99
2017-08-01T03:58:56.177Z,99.99
2017-08-01T03:59:56.880Z,99.99
2017-08-01T04:00:57.586Z,99.99
2017-08-01T04:01:58.546Z,99.99
2017-08-01T04:02:59.250Z,99.99
2017-08-01T04:03:59.956Z,99.99
2017-08-01T04:05:00.674Z,99.99
2017-08-01T04:06:01.384Z,99.99
2017-08-01T04:07:02.343Z,99.99
2017-08-01T04:08:03.047Z,99.99
2017-08-01T04:09:03.750Z,99.99
2017-08-01T04:10:04.457Z,99.99
2017-08-01T04:11:05.162Z,99.99
2017-08-01T04:12:06.118Z,99.99
2017-08-01T04:13:06.825Z,99.99
2017-08-01T04:14:07.532Z,99.99
2017-08-01T04:15:08.236Z,99.99
2017-08-01T04:16:08.941Z,99.99
2017-08-01T04:17:09.903Z,99.99
2017-08-01T04:18:10.605Z,99.99
2017-08-01T04:19:11.309Z,99.99
2017-08-01T04:20:12.019Z,99.99
2017-08-01T04:21:12.723Z,99.99
2017-08-01T04:22:13.675Z,99.99
2017-08-01T04:23:14.377Z,99.99
2017-08-01T04:24:15.084Z,99.99
2017-08-01T04:25:15.786Z,99.99
2017-08-01T04:26:16.488Z,99.99
2017-08-01T04:27:17.493Z,99.99
2017-08-01T04:28:18.200Z,99.99
2017-08-01T04:29:18.904Z,99.99
2017-08-01T04:30:19.609Z,99.99
2017-08-01T04:31:20.310Z,99.99
2017-08-01T04:32:21.261Z,99.99
2017-08-01T04:33:21.966Z,99.99
2017-08-01T04:34:22.669Z,99.99
2017-08-01T04:35:23.375Z,99.99
2017-08-01T04:36:24.079Z,99.99
2017-08-01T04:37:24.793Z,99.99
2017-08-01T04:38:25.496Z,99.99
2017-08-01T04:39:26.196Z,99.99
2017-08-01T04:40:26.901Z,99.99
2017-08-01T04:41:27.605Z,99.99
2017-08-01T04:42:28.311Z,99.99
2017-08-01T04:43:29.019Z,99.99
2017-08-01T04:44:29.724Z,99.99
2017-08-01T04:45:30.430Z,99.99
2017-08-01T04:46:31.133Z,99.99
2017-08-01T04:47:31.850Z,99.99
2017-08-01T04:48:32.554Z,99.99
2017-08-01T04:49:33.255Z,99.99
2017-08-01T04:50:33.961Z,99.99
2017-08-01T04:51:34.668Z,99.99
2017-08-01T04:52:35.625Z,99.99
2017-08-01T04:53:36.330Z,99.99
2017-08-01T04:54:37.036Z,99.99
2017-08-01T04:55:37.742Z,99.99
2017-08-01T04:56:38.447Z,99.99
2017-08-01T04:57:39.401Z,99.99
2017-08-01T04:58:40.103Z,99.99
2017-08-01T04:59:40.803Z,99.99
2017-08-01T05:00:41.508Z,99.99
2017-08-01T05:01:42.214Z,99.99
2017-08-01T05:02:43.170Z,99.99
2017-08-01T05:03:43.895Z,99.99
2017-08-01T05:04:44.599Z,99.99
2017-08-01T05:05:45.301Z,99.99
2017-08-01T05:06:46.007Z,99.99
2017-08-01T05:07:46.964Z,99.99
2017-08-01T05:08:47.669Z,99.99
2017-08-01T05:09:48.379Z,99.99
2017-08-01T05:10:49.085Z,99.99
2017-08-01T05:11:49.791Z,99.99
2017-08-01T05:12:50.751Z,99.99
2017-08-01T05:13:51.456Z,99.99
2017-08-01T05:14:52.168Z,99.99
2017-08-01T05:15:52.873Z,99.99
2017-08-01T05:16:53.580Z,99.99
2017-08-01T05:17:54.540Z,99.99
2017-08-01T05:18:55.253Z,99.99
2017-08-01T05:19:55.960Z,99.99
2017-08-01T05:20:56.666Z,99.99
2017-08-01T05:21:57.373Z,99.99
2017-08-01T05:22:58.327Z,99.99
2017-08-01T05:23:59.035Z,99.99
2017-08-01T05:24:59.748Z,99.99
2017-08-01T05:26:00.456Z,99.99
2017-08-01T05:27:01.161Z,99.99
2017-08-01T05:28:02.129Z,99.99
2017-08-01T05:29:02.835Z,99.99
2017-08-01T05:30:03.541Z,99.99
2017-08-01T05:31:04.249Z,99.99
2017-08-01T05:32:04.955Z,99.99
2017-08-01T05:33:05.909Z,99.99
2017-08-01T05:34:06.616Z,99.99
2017-08-01T05:35:07.332Z,99.99
2017-08-01T05:36:08.039Z,99.99
2017-08-01T05:37:08.760Z,99.99
2017-08-01T05:38:09.781Z,99.99
2017-08-01T05:39:10.495Z,99.99
2017-08-01T05:40:11.199Z,99.99
2017-08-01T05:41:11.907Z,99.99
2017-08-01T05:42:12.614Z,99.99
2017-08-01T05:43:13.573Z,99.99
2017-08-01T05:44:14.283Z,99.99
2017-08-01T05:45:14.995Z,99.99
2017-08-01T05:46:15.700Z,99.99
2017-08-01T05:47:16.411Z,99.99
2017-08-01T05:48:17.380Z,99.99
2017-08-01T05:49:18.085Z,99.99
2017-08-01T05:50:18.788Z,99.99
2017-08-01T05:51:19.497Z,99.99
2017-08-01T05:52:20.209Z,99.99
2017-08-01T05:53:20.914Z,99.99
2017-08-01T05:54:21.621Z,99.99
2017-08-01T05:55:22.336Z,99.99
2017-08-01T05:56:23.044Z,99.99
2017-08-01T05:57:23.747Z,99.99
2017-08-01T05:58:24.699Z,99.99
2017-08-01T05:59:25.410Z,99.99
2017-08-01T06:00:26.116Z,99.99
2017-08-01T06:01:26.817Z,99.99
2017-08-01T06:02:27.527Z,99.99
2017-08-01T06:03:28.482Z,99.99
2017-08-01T06:04:29.185Z,99.99
2017-08-01T06:05:29.891Z,99.99
2017-08-01T06:06:30.597Z,99.99
2017-08-01T06:07:31.305Z,99.99
2017-08-01T06:08:32.261Z,99.99
2017-08-01T06:09:32.964Z,99.99
2017-08-01T06:10:33.670Z,99.99
2017-08-01T06:11:34.382Z,99.99
2017-08-01T06:12:35.086Z,99.99
2017-08-01T06:13:36.046Z,99.99
2017-08-01T06:14:36.753Z,99.99
2017-08-01T06:15:37.467Z,99.99
2017-08-01T06:16:38.175Z,99.99
2017-08-01T06:17:38.891Z,99.99
2017-08-01T06:18:39.855Z,99.99
2017-08-01T06:19:40.561Z,99.99
2017-08-01T06:20:41.275Z,99.99
2017-08-01T06:21:41.984Z,99.99
2017-08-01T06:22:42.688Z,99.99
2017-08-01T06:23:43.664Z,99.99
2017-08-01T06:24:44.373Z,99.99
2017-08-01T06:25:45.078Z,99.99
2017-08-01T06:26:45.783Z,99.99
2017-08-01T06:27:46.493Z,99.99
2017-08-01T06:28:47.451Z,99.99
2017-08-01T06:29:48.160Z,99.99
2017-08-01T06:30:48.870Z,99.99
2017-08-01T06:31:49.575Z,99.93
2017-08-01T06:32:50.283Z,99.99
2017-08-01T06:33:51.246Z,99.84
2017-08-01T06:34:51.955Z,99.99
2017-08-01T06:35:52.663Z,99.84
2017-08-01T06:36:53.364Z,99.84
2017-08-01T06:37:54.071Z,99.55
2017-08-01T06:38:55.029Z,99.88
2017-08-01T06:39:55.739Z,99.50
2017-08-01T06:40:56.440Z,99.60
2017-08-01T06:41:57.157Z,99.79
2017-08-01T06:42:57.866Z,99.55
2017-08-01T06:43:58.833Z,98.63
2017-08-01T06:44:59.538Z,98.73
2017-08-01T06:46:00.247Z,98.63
2017-08-01T06:47:00.951Z,98.73
2017-08-01T06:48:01.663Z,98.44
2017-08-01T06:49:02.617Z,98.15
2017-08-01T06:50:03.324Z,98.63
2017-08-01T06:51:04.032Z,97.47
2017-08-01T06:52:04.743Z,97.42
2017-08-01T06:53:05.446Z,97.91
2017-08-01T06:54:06.403Z,97.72
2017-08-01T06:55:07.110Z,97.33
2017-08-01T06:56:07.820Z,97.42
2017-08-01T06:57:08.529Z,97.04
2017-08-01T06:58:09.237Z,96.84
2017-08-01T06:59:10.196Z,96.17
2017-08-01T07:00:10.907Z,96.41
2017-08-01T07:01:11.614Z,96.70
2017-08-01T07:02:12.322Z,96.31
2017-08-01T07:03:12.951Z,95.93
2017-08-01T07:04:13.980Z,95.45
2017-08-01T07:05:14.688Z,94.91
2017-08-01T07:06:15.395Z,94.72
2017-08-01T07:07:16.100Z,94.33
2017-08-01T07:08:16.810Z,94.18
2017-08-01T07:09:17.772Z,94.18
2017-08-01T07:10:18.481Z,93.99
2017-08-01T07:11:19.186Z,92.74
2017-08-01T07:12:19.896Z,91.19
2017-08-01T07:13:20.607Z,90.36
2017-08-01T07:14:21.560Z,91.14
2017-08-01T07:15:22.267Z,90.46
2017-08-01T07:16:22.977Z,89.20
2017-08-01T07:17:23.685Z,88.85
2017-08-01T07:18:24.396Z,88.28
2017-08-01T07:19:25.408Z,88.47
2017-08-01T07:20:26.117Z,89.39
2017-08-01T07:21:26.826Z,88.23
2017-08-01T07:22:27.539Z,87.64
2017-08-01T07:23:28.246Z,85.71
2017-08-01T07:24:29.205Z,86.00
2017-08-01T07:25:29.913Z,85.80
2017-08-01T07:26:30.623Z,85.41
2017-08-01T07:27:31.334Z,86.29
2017-08-01T07:28:32.040Z,85.71
2017-08-01T07:29:32.997Z,85.13
2017-08-01T07:30:33.708Z,85.13
2017-08-01T07:31:34.414Z,84.55
2017-08-01T07:32:35.120Z,84.10
2017-08-01T07:33:35.829Z,83.81
2017-08-01T07:34:36.785Z,83.72
2017-08-01T07:35:37.499Z,83.81
2017-08-01T07:36:38.211Z,84.39
2017-08-01T07:37:38.924Z,84.20
2017-08-01T07:38:39.634Z,84.39
2017-08-01T07:39:40.595Z,84.53
2017-08-01T07:40:41.304Z,83.95
2017-08-01T07:41:42.012Z,82.75
2017-08-01T07:42:42.723Z,82.55
2017-08-01T07:43:43.433Z,82.88
2017-08-01T07:44:44.141Z,83.17
2017-08-01T07:45:44.856Z,83.72
2017-08-01T07:46:45.570Z,84.39
2017-08-01T07:47:46.284Z,84.30
2017-08-01T07:48:47.001Z,84.10
2017-08-01T07:49:47.713Z,83.65
2017-08-01T07:50:48.429Z,83.37
2017-08-01T07:51:49.150Z,83.27
2017-08-01T07:52:49.863Z,83.07
2017-08-01T07:53:50.572Z,82.88
2017-08-01T07:54:51.528Z,83.17
2017-08-01T07:55:52.236Z,83.56
2017-08-01T07:56:52.949Z,82.50
2017-08-01T07:57:53.661Z,82.78
2017-08-01T07:58:54.372Z,82.59
2017-08-01T07:59:55.333Z,82.01
2017-08-01T08:00:56.047Z,82.40
2017-08-01T08:01:56.761Z,82.53
2017-08-01T08:02:57.471Z,81.27
2017-08-01T08:03:58.185Z,81.76
2017-08-01T08:04:59.151Z,81.80
2017-08-01T08:05:59.864Z,81.31
2017-08-01T08:07:00.580Z,81.02
2017-08-01T08:08:01.294Z,82.77
2017-08-01T08:09:02.012Z,82.87
2017-08-01T08:10:02.973Z,82.18
2017-08-01T08:11:03.684Z,81.51
2017-08-01T08:12:04.392Z,81.12
2017-08-01T08:13:05.102Z,81.12
2017-08-01T08:14:05.813Z,80.44
2017-08-01T08:15:06.785Z,80.25
2017-08-01T08:16:07.498Z,79.86
2017-08-01T08:17:08.208Z,79.66
2017-08-01T08:18:08.919Z,78.99
2017-08-01T08:19:09.632Z,79.43
2017-08-01T08:20:10.591Z,80.11
2017-08-01T08:21:11.310Z,79.63
2017-08-01T08:22:12.017Z,80.01
2017-08-01T08:23:12.735Z,80.21
2017-08-01T08:24:13.450Z,80.79
2017-08-01T08:25:14.465Z,81.47
2017-08-01T08:26:15.171Z,82.53
2017-08-01T08:27:15.876Z,82.15
2017-08-01T08:28:16.585Z,82.59
2017-08-01T08:29:17.299Z,82.40
2017-08-01T08:30:18.256Z,82.78
2017-08-01T08:31:18.976Z,83.37
2017-08-01T08:32:19.684Z,83.85
2017-08-01T08:33:20.393Z,83.75
2017-08-01T08:34:21.101Z,83.75
2017-08-01T08:35:22.057Z,83.65
2017-08-01T08:36:22.798Z,83.95
2017-08-01T08:37:23.518Z,84.14
2017-08-01T08:38:24.225Z,84.53
2017-08-01T08:39:24.938Z,84.43
2017-08-01T08:40:25.949Z,84.24
2017-08-01T08:41:26.658Z,83.85
2017-08-01T08:42:27.366Z,82.78
2017-08-01T08:43:28.073Z,83.17
2017-08-01T08:44:28.782Z,82.78
2017-08-01T08:45:29.740Z,83.17
2017-08-01T08:46:30.449Z,82.82
2017-08-01T08:47:31.158Z,83.22
2017-08-01T08:48:31.867Z,82.15
2017-08-01T08:49:32.586Z,81.76
2017-08-01T08:50:33.549Z,80.98
2017-08-01T08:51:34.263Z,81.80
2017-08-01T08:52:34.974Z,82.67
2017-08-01T08:53:35.682Z,82.18
2017-08-01T08:54:36.395Z,82.18
2017-08-01T08:55:37.401Z,82.09
2017-08-01T08:56:38.105Z,81.99
2017-08-01T08:57:38.812Z,81.90
2017-08-01T08:58:39.522Z,81.80
2017-08-01T08:59:40.233Z,81.80
2017-08-01T09:00:41.197Z,82.38
2017-08-01T09:01:41.908Z,81.31
2017-08-01T09:02:42.618Z,81.41
2017-08-01T09:03:43.328Z,82.09
2017-08-01T09:04:44.044Z,81.60
2017-08-01T09:05:45.012Z,81.70
2017-08-01T09:06:45.724Z,81.41
2017-08-01T09:07:46.441Z,81.60
2017-08-01T09:08:47.148Z,81.41
2017-08-01T09:09:47.863Z,82.18
2017-08-01T09:10:48.826Z,81.80
2017-08-01T09:11:49.536Z,81.31
2017-08-01T09:12:50.245Z,81.31
2017-08-01T09:13:50.954Z,81.31
2017-08-01T09:14:51.662Z,81.06
2017-08-01T09:15:52.674Z,81.26
2017-08-01T09:16:53.387Z,80.87
2017-08-01T09:17:54.097Z,80.87
2017-08-01T09:18:54.809Z,80.96
2017-08-01T09:19:55.526Z,81.16
2017-08-01T09:20:56.242Z,81.35
2017-08-01T09:21:56.949Z,80.38
2017-08-01T09:22:57.659Z,80.48
2017-08-01T09:23:58.378Z,81.35
2017-08-01T09:24:59.093Z,80.68
2017-08-01T09:26:00.054Z,80.09
2017-08-01T09:27:00.764Z,79.06
2017-08-01T09:28:01.507Z,79.32
2017-08-01T09:29:02.229Z,78.83
2017-08-01T09:30:02.939Z,78.38
2017-08-01T09:31:03.901Z,78.58
2017-08-01T09:32:04.615Z,80.23
2017-08-01T09:33:05.326Z,80.04
2017-08-01T09:34:06.033Z,80.04
2017-08-01T09:35:06.746Z,80.23
2017-08-01T09:36:07.722Z,80.56
2017-08-01T09:37:08.433Z,80.76
2017-08-01T09:38:09.145Z,81.63
2017-08-01T09:39:09.855Z,79.00
2017-08-01T09:40:10.570Z,79.30
2017-08-01T09:41:11.281Z,79.20
2017-08-01T09:42:11.994Z,78.33
2017-08-01T09:43:12.699Z,78.42
2017-08-01T09:44:13.408Z,78.61
2017-08-01T09:45:14.121Z,79.39
2017-08-01T09:46:15.133Z,78.33
2017-08-01T09:47:15.844Z,78.94
2017-08-01T09:48:16.553Z,78.46
2017-08-01T09:49:17.265Z,78.36
2017-08-01T09:50:17.988Z,77.39
2017-08-01T09:51:18.949Z,78.46
2017-08-01T09:52:19.663Z,77.20
2017-08-01T09:53:20.376Z,77.53
2017-08-01T09:54:21.084Z,76.94
2017-08-01T09:55:21.805Z,76.26
2017-08-01T09:56:22.768Z,76.94
2017-08-01T09:57:23.480Z,75.78
2017-08-01T09:58:24.191Z,75.78
2017-08-01T09:59:24.903Z,75.78
2017-08-01T10:00:25.617Z,76.07
2017-08-01T10:01:26.592Z,75.68
2017-08-01T10:02:27.301Z,75.29
2017-08-01T10:03:28.011Z,75.29
2017-08-01T10:04:28.722Z,76.45
2017-08-01T10:05:29.436Z,75.48
2017-08-01T10:06:30.395Z,75.19
2017-08-01T10:07:31.108Z,74.90
2017-08-01T10:08:31.816Z,74.99
2017-08-01T10:09:32.532Z,75.09
2017-08-01T10:10:33.242Z,75.23
2017-08-01T10:11:34.200Z,75.19
2017-08-01T10:12:34.915Z,74.55
2017-08-01T10:13:35.630Z,74.55
2017-08-01T10:14:36.341Z,74.55
2017-08-01T10:15:37.054Z,76.10
2017-08-01T10:16:38.018Z,75.71
2017-08-01T10:17:38.735Z,74.16
2017-08-01T10:18:39.448Z,75.03
2017-08-01T10:19:40.158Z,74.35
2017-08-01T10:20:40.867Z,74.55
2017-08-01T10:21:41.829Z,74.45
2017-08-01T10:22:42.540Z,75.56
2017-08-01T10:23:43.249Z,76.82
2017-08-01T10:24:43.960Z,75.16
2017-08-01T10:25:44.672Z,73.80
2017-08-01T10:26:45.634Z,73.22
2017-08-01T10:27:46.345Z,73.51
2017-08-01T10:28:47.059Z,74.10
2017-08-01T10:29:47.770Z,73.71
2017-08-01T10:30:48.483Z,74.13
2017-08-01T10:31:49.444Z,73.61
2017-08-01T10:32:50.163Z,73.71
2017-08-01T10:33:50.886Z,74.10
2017-08-01T10:34:51.603Z,73.71
2017-08-01T10:35:52.312Z,72.86
2017-08-01T10:36:53.271Z,73.84
2017-08-01T10:37:53.983Z,74.13
2017-08-01T10:38:54.698Z,72.57
2017-08-01T10:39:55.409Z,73.45
2017-08-01T10:40:56.121Z,72.96
2017-08-01T10:41:56.831Z,72.96
2017-08-01T10:42:57.543Z,73.35
2017-08-01T10:43:58.261Z,73.94
2017-08-01T10:44:58.978Z,73.39
2017-08-01T10:45:59.693Z,72.12
2017-08-01T10:47:00.652Z,71.64
2017-08-01T10:48:01.364Z,71.92
2017-08-01T10:49:02.077Z,72.22
2017-08-01T10:50:02.786Z,72.31
2017-08-01T10:51:03.498Z,72.90
2017-08-01T10:52:04.511Z,71.73
2017-08-01T10:53:05.223Z,71.05
2017-08-01T10:54:05.933Z,70.40
2017-08-01T10:55:06.645Z,70.01
2017-08-01T10:56:07.359Z,70.40
2017-08-01T10:57:08.323Z,70.01
2017-08-01T10:58:09.042Z,69.33
2017-08-01T10:59:09.754Z,69.72
2017-08-01T11:00:10.465Z,69.13
2017-08-01T11:01:11.177Z,68.59
2017-08-01T11:02:12.136Z,69.85
2017-08-01T11:03:12.844Z,69.46
2017-08-01T11:04:13.551Z,68.39
2017-08-01T11:05:14.268Z,67.71
2017-08-01T11:06:14.989Z,68.68
2017-08-01T11:07:15.951Z,69.46
2017-08-01T11:08:16.667Z,70.14
2017-08-01T11:09:17.377Z,69.89
2017-08-01T11:10:18.091Z,68.03
2017-08-01T11:11:18.801Z,69.20
2017-08-01T11:12:19.827Z,67.35
2017-08-01T11:13:20.534Z,67.35
2017-08-01T11:14:21.247Z,67.19
2017-08-01T11:15:21.969Z,66.27
2017-08-01T11:16:22.680Z,68.13
2017-08-01T11:17:23.648Z,67.05
2017-08-01T11:18:24.361Z,67.83
2017-08-01T11:19:25.072Z,68.46
2017-08-01T11:20:25.784Z,67.68
2017-08-01T11:21:26.499Z,66.50
2017-08-01T11:22:27.465Z,67.09
2017-08-01T11:23:28.184Z,68.26
2017-08-01T11:24:28.895Z,67.12
2017-08-01T11:25:29.611Z,66.73
2017-08-01T11:26:30.327Z,67.90
2017-08-01T11:27:31.295Z,66.63
2017-08-01T11:28:32.010Z,66.34
2017-08-01T11:29:32.733Z,67.41
2017-08-01T11:30:33.448Z,66.05
2017-08-01T11:31:34.155Z,66.17
2017-08-01T11:32:34.865Z,66.17
2017-08-01T11:33:35.577Z,66.69
2017-08-01T11:34:36.303Z,65.81
2017-08-01T11:35:37.021Z,62.88
2017-08-01T11:36:37.735Z,63.50
2017-08-01T11:37:38.748Z,62.19
2017-08-01T11:38:39.466Z,61.12
2017-08-01T11:39:40.181Z,62.19
2017-08-01T11:40:40.891Z,62.39
2017-08-01T11:41:41.605Z,63.37
2017-08-01T11:42:42.317Z,64.48
2017-08-01T11:43:43.030Z,63.60
2017-08-01T11:44:43.741Z,62.55
2017-08-01T11:45:44.451Z,61.21
2017-08-01T11:46:45.171Z,60.82
2017-08-01T11:47:46.181Z,59.64
2017-08-01T11:48:46.902Z,59.84
2017-08-01T11:49:47.611Z,59.94
2017-08-01T11:50:48.335Z,59.77
2017-08-01T11:51:49.049Z,60.16
2017-08-01T11:52:50.025Z,58.67
2017-08-01T11:53:50.737Z,59.84
2017-08-01T11:54:51.450Z,60.82
2017-08-01T11:55:52.161Z,60.52
2017-08-01T11:56:52.882Z,58.96
2017-08-01T11:57:53.847Z,61.02
2017-08-01T11:58:54.563Z,60.52
2017-08-01T11:59:55.282Z,60.00
2017-08-01T12:00:55.996Z,60.39
2017-08-01T12:01:56.716Z,60.19
2017-08-01T12:02:57.687Z,60.68
2017-08-01T12:03:58.397Z,58.26
2017-08-01T12:04:59.115Z,58.16
2017-08-01T12:05:59.830Z,55.51
2017-08-01T12:07:00.546Z,55.02
2017-08-01T12:08:01.511Z,56.20
2017-08-01T12:09:02.226Z,56.10
2017-08-01T12:10:02.944Z,55.93
2017-08-01T12:11:03.656Z,54.56
2017-08-01T12:12:04.370Z,55.96
2017-08-01T12:13:05.084Z,54.19
2017-08-01T12:14:05.814Z,54.58
2017-08-01T12:15:06.535Z,54.68
2017-08-01T12:16:07.253Z,54.29
2017-08-01T12:17:07.985Z,54.10
2017-08-01T12:18:08.952Z,53.44
2017-08-01T12:19:09.668Z,52.84
2017-08-01T12:20:10.382Z,54.71
2017-08-01T12:21:11.097Z,52.65
2017-08-01T12:22:11.819Z,54.12
2017-08-01T12:23:12.788Z,52.94
2017-08-01T12:24:13.501Z,52.58
2017-08-01T12:25:14.215Z,52.08
2017-08-01T12:26:14.928Z,51.03
2017-08-01T12:27:15.640Z,50.44
2017-08-01T12:28:16.657Z,51.32
2017-08-01T12:29:17.378Z,51.72
2017-08-01T12:30:18.094Z,52.99
2017-08-01T12:31:18.818Z,52.99
2017-08-01T12:32:19.534Z,52.33
2017-08-01T12:33:20.499Z,51.42
2017-08-01T12:34:21.219Z,51.32
2017-08-01T12:35:21.934Z,50.54
2017-08-01T12:36:22.646Z,50.54
2017-08-01T12:37:23.359Z,52.62
2017-08-01T12:38:24.323Z,50.37
2017-08-01T12:39:25.041Z,49.75
2017-08-01T12:40:25.766Z,50.73
2017-08-01T12:41:26.496Z,51.72
2017-08-01T12:42:27.215Z,50.54
2017-08-01T12:43:28.185Z,50.66
2017-08-01T12:44:28.902Z,50.04
2017-08-01T12:45:29.624Z,51.32
2017-08-01T12:46:30.341Z,51.64
2017-08-01T12:47:31.057Z,49.58
2017-08-01T12:48:32.034Z,49.55
2017-08-01T12:49:32.748Z,48.57
2017-08-01T12:50:33.469Z,49.75
2017-08-01T12:51:34.181Z,50.54
2017-08-01T12:52:34.896Z,50.76
2017-08-01T12:53:35.867Z,50.16
2017-08-01T12:54:36.583Z,48.10
2017-08-01T12:55:37.299Z,49.58
2017-08-01T12:56:38.018Z,47.31
2017-08-01T12:57:38.737Z,48.52
2017-08-01T12:58:39.702Z,48.49
2017-08-01T12:59:40.421Z,49.28
2017-08-01T13:00:41.137Z,49.40
2017-08-01T13:01:41.852Z,49.33
2017-08-01T13:02:42.578Z,48.14